createdAt,value
2022-10-07T00:00:56.136Z,99297.47
2022-10-07T00:03:25.840Z,99292.22
2022-10-07T00:06:05.216Z,99302.44
2022-10-07T00:08:32.221Z,99300.19
2022-10-07T00:11:04.917Z,99293.50
2022-10-07T00:13:32.348Z,99294.56
2022-10-07T00:16:07.828Z,99303.13
2022-10-07T00:18:35.911Z,99300.78
2022-10-07T00:21:08.105Z,99305.66
2022-10-07T00:23:35.827Z,99307.16
2022-10-07T00:26:04.342Z,99309.00
2022-10-07T00:28:31.801Z,99315.06
2022-10-07T00:31:10.785Z,99318.31
2022-10-07T00:33:39.849Z,99321.47
2022-10-07T00:36:09.847Z,99321.91
2022-10-07T00:38:36.758Z,99325.03
2022-10-07T00:41:04.193Z,99322.22
2022-10-07T00:43:32.235Z,99318.91
2022-10-07T00:46:08.287Z,99320.72
2022-10-07T00:48:36.839Z,99319.66
2022-10-07T00:51:04.060Z,99340.84
2022-10-07T00:53:33.260Z,99332.22
2022-10-07T00:56:04.517Z,99337.25
2022-10-07T00:58:33.168Z,99330.91
2022-10-07T01:01:00.511Z,99334.88
2022-10-07T01:03:28.302Z,99348.09
2022-10-07T01:05:55.371Z,99346.00
2022-10-07T01:08:23.364Z,99331.06
2022-10-07T01:11:34.194Z,99344.97
2022-10-07T01:14:08.057Z,99347.66
2022-10-07T01:16:51.101Z,99347.22
2022-10-07T01:19:44.448Z,99355.28
2022-10-07T01:22:46.651Z,99355.44
2022-10-07T01:25:28.475Z,99343.84
2022-10-07T01:28:01.116Z,99351.31
2022-10-07T01:30:32.079Z,99359.25
2022-10-07T01:33:05.302Z,99364.09
2022-10-07T01:35:35.752Z,99370.38
2022-10-07T01:38:05.732Z,99368.16
2022-10-07T01:40:54.597Z,99375.59
2022-10-07T01:43:22.567Z,99381.06
2022-10-07T01:45:52.237Z,99390.53
2022-10-07T01:48:19.203Z,99387.78
2022-10-07T01:50:47.388Z,99386.38
2022-10-07T01:53:32.576Z,99393.06
2022-10-07T01:56:31.784Z,99390.88
2022-10-07T01:59:25.595Z,99389.22
2022-10-07T02:02:04.212Z,99399.56
2022-10-07T02:04:59.318Z,99402.34
2022-10-07T02:07:51.443Z,99399.50
2022-10-07T02:10:26.960Z,99405.69
2022-10-07T02:13:14.175Z,99410.25
2022-10-07T02:16:26.235Z,99411.88
2022-10-07T02:18:54.190Z,99401.13
2022-10-07T02:21:25.542Z,99409.97
2022-10-07T02:23:55.036Z,99416.25
2022-10-07T02:26:23.448Z,99422.41
2022-10-07T02:28:53.036Z,99409.38
2022-10-07T02:31:23.160Z,99415.88
2022-10-07T02:33:54.032Z,99415.50
2022-10-07T02:36:25.649Z,99422.97
2022-10-07T02:38:53.339Z,99427.28
2022-10-07T02:41:44.245Z,99434.66
2022-10-07T02:44:20.446Z,99430.09
2022-10-07T02:46:58.643Z,99428.38
2022-10-07T02:49:26.830Z,99432.72
2022-10-07T02:52:00.360Z,99427.34
2022-10-07T02:54:33.403Z,99428.38
2022-10-07T02:57:02.867Z,99425.25
2022-10-07T02:59:31.326Z,99423.75
2022-10-07T03:02:00.787Z,99423.91
2022-10-07T03:04:27.898Z,99434.66
2022-10-07T03:06:55.774Z,99435.50
2022-10-07T03:09:24.987Z,99427.06
2022-10-07T03:11:51.896Z,99427.50
2022-10-07T03:14:19.160Z,99431.50
2022-10-07T03:16:46.584Z,99437.34
2022-10-07T03:19:13.467Z,99439.88
2022-10-07T03:21:47.663Z,99440.81
2022-10-07T03:24:14.666Z,99441.69
2022-10-07T03:26:45.453Z,99437.50
2022-10-07T03:29:14.074Z,99435.03
2022-10-07T03:31:42.449Z,99446.66
2022-10-07T03:34:09.754Z,99457.41
2022-10-07T03:36:37.336Z,99453.09
2022-10-07T03:39:10.801Z,99456.63
2022-10-07T03:41:37.842Z,99453.78
2022-10-07T03:44:05.760Z,99461.06
2022-10-07T03:46:33.688Z,99458.44
2022-10-07T03:49:01.491Z,99471.44
2022-10-07T03:51:29.419Z,99466.59
2022-10-07T03:53:58.256Z,99467.50
2022-10-07T03:56:29.630Z,99474.13
2022-10-07T03:58:56.636Z,99474.56
2022-10-07T04:01:24.996Z,99467.16
2022-10-07T04:03:56.432Z,99464.50
2022-10-07T04:06:25.678Z,99484.97
2022-10-07T04:08:53.930Z,99472.78
2022-10-07T04:11:22.002Z,99484.34
2022-10-07T04:13:51.895Z,99485.16
2022-10-07T04:16:20.086Z,99491.97
2022-10-07T04:18:48.092Z,99501.28
2022-10-07T04:21:15.740Z,99509.09
2022-10-07T04:23:42.791Z,99511.97
2022-10-07T04:26:11.315Z,99515.09
2022-10-07T04:28:45.805Z,99514.28
2022-10-07T04:31:18.013Z,99518.78
2022-10-07T04:33:47.867Z,99515.88
2022-10-07T04:36:20.576Z,99512.81
2022-10-07T04:38:53.182Z,99522.97
2022-10-07T04:41:26.903Z,99520.00
2022-10-07T04:43:57.842Z,99533.44
2022-10-07T04:46:28.719Z,99536.31
2022-10-07T04:49:05.223Z,99542.25
2022-10-07T04:51:32.588Z,99531.50
2022-10-07T04:54:01.168Z,99537.91
2022-10-07T04:56:37.811Z,99540.16
2022-10-07T04:59:07.731Z,99536.88
2022-10-07T05:01:39.650Z,99545.75
2022-10-07T05:04:09.140Z,99548.41
2022-10-07T05:06:36.056Z,99557.47
2022-10-07T05:09:04.503Z,99554.91
2022-10-07T05:11:34.800Z,99553.88
2022-10-07T05:14:09.229Z,99560.66
2022-10-07T05:16:37.066Z,99570.94
2022-10-07T05:19:05.407Z,99561.88
2022-10-07T05:21:33.905Z,99571.53
2022-10-07T05:24:02.017Z,99575.81
2022-10-07T05:26:34.437Z,99565.78
2022-10-07T05:29:03.535Z,99571.91
2022-10-07T05:31:37.585Z,99575.38
2022-10-07T05:34:06.180Z,99582.78
2022-10-07T05:36:34.059Z,99586.31
2022-10-07T05:39:05.608Z,99588.84
2022-10-07T05:41:45.587Z,99589.81
2022-10-07T05:44:18.012Z,99602.91
2022-10-07T05:46:47.179Z,99598.25
2022-10-07T05:49:15.900Z,99588.25
2022-10-07T05:51:43.086Z,99601.28
2022-10-07T05:54:10.109Z,99595.97
2022-10-07T05:56:41.375Z,99605.72
2022-10-07T05:59:08.861Z,99620.53
2022-10-07T06:01:37.768Z,99621.28
2022-10-07T06:04:11.827Z,99605.56
2022-10-07T06:06:41.662Z,99604.56
2022-10-07T06:09:31.203Z,99611.91
2022-10-07T06:12:19.925Z,99621.03
2022-10-07T06:14:48.461Z,99623.97
2022-10-07T06:17:17.583Z,99630.78
2022-10-07T06:19:49.108Z,99627.19
2022-10-07T06:22:18.529Z,99628.59
2022-10-07T06:24:45.815Z,99628.25
2022-10-07T06:27:12.919Z,99639.47
2022-10-07T06:29:41.093Z,99638.25
2022-10-07T06:32:08.620Z,99640.06
2022-10-07T06:34:35.780Z,99647.16
2022-10-07T06:37:02.844Z,99659.16
2022-10-07T06:39:30.375Z,99665.91
2022-10-07T06:42:00.176Z,99678.19
2022-10-07T06:44:44.103Z,99673.22
2022-10-07T06:47:15.941Z,99663.00
2022-10-07T06:49:45.536Z,99665.59
2022-10-07T06:52:13.134Z,99671.84
2022-10-07T06:54:41.363Z,99684.88
2022-10-07T06:57:33.193Z,99681.13
2022-10-07T06:59:58.160Z,99688.41
2022-10-07T07:02:28.215Z,99702.09
2022-10-07T07:04:57.665Z,99685.44
2022-10-07T07:07:26.337Z,99694.16
2022-10-07T07:09:53.853Z,99700.53
2022-10-07T07:12:25.598Z,99696.31
2022-10-07T07:14:55.446Z,99704.25
2022-10-07T07:17:22.421Z,99721.81
2022-10-07T07:19:49.452Z,99724.72
2022-10-07T07:22:17.660Z,99725.56
2022-10-07T07:24:44.673Z,99711.72
2022-10-07T07:27:12.790Z,99724.66
2022-10-07T07:29:39.780Z,99735.31
2022-10-07T07:32:08.349Z,99731.19
2022-10-07T07:34:39.288Z,99748.16
2022-10-07T07:37:08.583Z,99738.97
2022-10-07T07:39:42.806Z,99733.81
2022-10-07T07:42:14.204Z,99737.72
2022-10-07T07:44:44.408Z,99738.25
2022-10-07T07:47:17.254Z,99737.44
2022-10-07T07:49:46.140Z,99744.69
2022-10-07T07:52:20.600Z,99743.56
2022-10-07T07:54:51.931Z,99755.19
2022-10-07T07:57:19.723Z,99739.44
2022-10-07T07:59:49.920Z,99746.47
2022-10-07T08:02:18.634Z,99723.88
2022-10-07T08:04:51.646Z,99743.03
2022-10-07T08:07:18.683Z,99739.13
2022-10-07T08:09:47.656Z,99758.31
2022-10-07T08:12:15.152Z,99759.53
2022-10-07T08:14:45.964Z,99753.88
2022-10-07T08:17:16.180Z,99732.81
2022-10-07T08:19:43.389Z,99761.75
2022-10-07T08:22:11.812Z,99759.88
2022-10-07T08:24:39.460Z,99757.09
2022-10-07T08:27:08.909Z,99767.66
2022-10-07T08:29:36.019Z,99768.31
2022-10-07T08:32:03.383Z,99775.78
2022-10-07T08:34:30.419Z,99769.75
2022-10-07T08:36:57.381Z,99781.00
2022-10-07T08:39:26.764Z,99778.84
2022-10-07T08:42:08.803Z,99777.78
2022-10-07T08:44:42.104Z,99765.09
2022-10-07T08:47:30.513Z,99780.09
2022-10-07T08:50:07.943Z,99787.59
2022-10-07T08:52:44.605Z,99780.69
2022-10-07T08:55:11.757Z,99786.50
2022-10-07T08:57:52.510Z,99780.75
2022-10-07T09:00:21.521Z,99781.56
2022-10-07T09:03:07.624Z,99790.31
2022-10-07T09:05:40.570Z,99782.69
2022-10-07T09:08:14.929Z,99797.75
2022-10-07T09:10:49.743Z,99788.13
2022-10-07T09:13:26.316Z,99791.13
2022-10-07T09:16:09.734Z,99787.63
2022-10-07T09:18:42.991Z,99817.97
2022-10-07T09:21:18.990Z,99800.72
2022-10-07T09:23:46.951Z,99797.19
2022-10-07T09:26:16.301Z,99807.97
2022-10-07T09:28:44.092Z,99790.19
2022-10-07T09:31:15.686Z,99814.06
2022-10-07T09:33:46.214Z,99790.88
2022-10-07T09:36:18.352Z,99792.66
2022-10-07T09:38:47.933Z,99780.94
2022-10-07T09:41:32.345Z,99796.69
2022-10-07T09:44:00.540Z,99810.03
2022-10-07T09:46:40.465Z,99800.97
2022-10-07T09:49:07.972Z,99795.06
2022-10-07T09:51:35.496Z,99813.72
2022-10-07T09:54:08.807Z,99799.50
2022-10-07T09:56:44.844Z,99801.28
2022-10-07T09:59:21.404Z,99804.06
2022-10-07T10:02:14.575Z,99807.59
2022-10-07T10:04:53.312Z,99816.31
2022-10-07T10:07:25.135Z,99807.94
2022-10-07T10:09:54.137Z,99810.09
2022-10-07T10:12:23.846Z,99798.44
2022-10-07T10:14:53.094Z,99802.31
2022-10-07T10:17:24.431Z,99816.88
2022-10-07T10:19:51.527Z,99806.91
2022-10-07T10:22:30.387Z,99795.22
2022-10-07T10:25:15.865Z,99814.47
2022-10-07T10:27:55.460Z,99814.88
2022-10-07T10:30:23.460Z,99815.72
2022-10-07T10:33:05.721Z,99812.91
2022-10-07T10:35:41.964Z,99800.78
2022-10-07T10:38:18.858Z,99797.13
2022-10-07T10:40:49.293Z,99794.66
2022-10-07T10:43:25.864Z,99802.13
2022-10-07T10:46:27.602Z,99809.13
2022-10-07T10:49:16.401Z,99798.66
2022-10-07T10:51:59.631Z,99799.88
2022-10-07T10:54:49.305Z,99812.34
2022-10-07T10:57:42.652Z,99803.59
2022-10-07T11:00:13.927Z,99794.19
2022-10-07T11:02:53.073Z,99795.94
2022-10-07T11:05:32.221Z,99798.53
2022-10-07T11:08:08.008Z,99784.66
2022-10-07T11:10:37.894Z,99785.53
2022-10-07T11:13:15.793Z,99781.91
2022-10-07T11:16:18.140Z,99797.38
2022-10-07T11:18:58.432Z,99803.28
2022-10-07T11:21:30.788Z,99795.38
2022-10-07T11:24:18.088Z,99789.59
2022-10-07T11:26:52.365Z,99807.63
2022-10-07T11:29:28.574Z,99806.56
2022-10-07T11:32:08.379Z,99796.78
2022-10-07T11:34:44.104Z,99811.06
2022-10-07T11:37:30.062Z,99817.56
2022-10-07T11:39:57.399Z,99812.38
2022-10-07T11:42:29.147Z,99792.56
2022-10-07T11:45:02.800Z,99816.56
2022-10-07T11:47:38.371Z,99825.16
2022-10-07T11:50:12.986Z,99821.06
2022-10-07T11:52:44.314Z,99810.50
2022-10-07T11:55:25.067Z,99827.81
2022-10-07T11:57:56.192Z,99832.09
2022-10-07T12:00:25.927Z,99832.69
2022-10-07T12:02:55.288Z,99829.19
2022-10-07T12:05:42.679Z,99836.78
2022-10-07T12:08:34.406Z,99831.00
2022-10-07T12:11:14.705Z,99835.03
2022-10-07T12:13:46.246Z,99835.97
2022-10-07T12:16:31.634Z,99833.09
2022-10-07T12:19:10.362Z,99825.59
2022-10-07T12:21:59.606Z,99835.84
2022-10-07T12:24:28.216Z,99823.81
2022-10-07T12:27:17.756Z,99832.44
2022-10-07T12:29:50.930Z,99832.09
2022-10-07T12:32:39.474Z,99838.53
2022-10-07T12:35:36.259Z,99834.44
2022-10-07T12:38:18.519Z,99820.91
2022-10-07T12:41:00.545Z,99827.50
2022-10-07T12:43:36.913Z,99836.91
2022-10-07T12:46:06.435Z,99837.25
2022-10-07T12:48:39.558Z,99826.44
2022-10-07T12:51:19.522Z,99845.84
2022-10-07T12:53:47.740Z,99839.59
2022-10-07T12:56:25.381Z,99841.50
2022-10-07T12:59:51.072Z,99841.81
2022-10-07T13:02:37.340Z,99857.69
2022-10-07T13:05:43.720Z,99848.47
2022-10-07T13:08:23.103Z,99857.28
2022-10-07T13:11:17.755Z,99862.44
2022-10-07T13:14:09.009Z,99847.50
2022-10-07T13:16:39.052Z,99869.72
2022-10-07T13:19:27.961Z,99868.31
2022-10-07T13:22:13.906Z,99869.84
2022-10-07T13:24:54.232Z,99881.09
2022-10-07T13:27:28.714Z,99872.50
2022-10-07T13:29:57.632Z,99873.94
2022-10-07T13:32:32.507Z,99882.84
2022-10-07T13:35:01.453Z,99866.97
2022-10-07T13:37:37.818Z,99864.25
2022-10-07T13:40:28.348Z,99871.78
2022-10-07T13:42:59.342Z,99868.47
2022-10-07T13:45:27.858Z,99872.91
2022-10-07T13:47:57.321Z,99872.69
2022-10-07T13:50:34.348Z,99861.16
2022-10-07T13:53:04.170Z,99872.63
2022-10-07T13:55:37.804Z,99871.81
2022-10-07T13:58:06.897Z,99870.41
2022-10-07T14:00:36.141Z,99872.16
2022-10-07T14:03:13.383Z,99880.47
2022-10-07T14:05:52.014Z,99881.66
2022-10-07T14:08:25.093Z,99887.16
2022-10-07T14:11:03.628Z,99865.84
2022-10-07T14:13:32.324Z,99866.31
2022-10-07T14:15:59.767Z,99887.22
2022-10-07T14:18:29.832Z,99869.69
2022-10-07T14:21:08.374Z,99883.56
2022-10-07T14:23:37.825Z,99879.88
2022-10-07T14:26:07.109Z,99882.59
2022-10-07T14:28:35.511Z,99904.41
2022-10-07T14:31:27.143Z,99883.03
2022-10-07T14:34:16.059Z,99885.00
2022-10-07T14:37:02.139Z,99894.97
2022-10-07T14:39:42.664Z,99895.25
2022-10-07T14:42:22.112Z,99896.16
2022-10-07T14:44:51.055Z,99910.56
2022-10-07T14:47:21.173Z,99894.56
2022-10-07T14:49:48.811Z,99886.78
2022-10-07T14:52:29.095Z,99905.16
2022-10-07T14:54:57.702Z,99911.44
2022-10-07T14:57:27.320Z,99913.94
2022-10-07T14:59:54.954Z,99911.69
2022-10-07T15:02:22.451Z,99921.22
2022-10-07T15:04:49.541Z,99920.00
2022-10-07T15:07:18.314Z,99924.56
2022-10-07T15:09:46.556Z,99927.28
2022-10-07T15:12:16.610Z,99921.56
2022-10-07T15:14:43.770Z,99922.00
2022-10-07T15:17:15.009Z,99924.25
2022-10-07T15:19:42.086Z,99929.50
2022-10-07T15:22:09.094Z,99934.88
2022-10-07T15:24:36.056Z,99933.88
2022-10-07T15:27:03.269Z,99921.72
2022-10-07T15:29:32.567Z,99934.41
2022-10-07T15:32:02.440Z,99926.75
2022-10-07T15:34:36.335Z,99930.94
2022-10-07T15:37:03.347Z,99935.13
2022-10-07T15:39:30.349Z,99939.91
2022-10-07T15:41:57.275Z,99937.66
2022-10-07T15:44:24.299Z,99929.81
2022-10-07T15:46:54.010Z,99940.75
2022-10-07T15:49:21.123Z,99936.41
2022-10-07T15:51:49.088Z,99924.47
2022-10-07T15:54:16.649Z,99940.66
2022-10-07T15:56:48.717Z,99931.53
2022-10-07T15:59:16.441Z,99939.88
2022-10-07T16:01:46.635Z,99937.44
2022-10-07T16:04:13.837Z,99944.28
2022-10-07T16:06:40.820Z,99947.41
2022-10-07T16:09:07.815Z,99948.69
2022-10-07T16:11:36.409Z,99954.88
2022-10-07T16:14:06.982Z,99954.06
2022-10-07T16:16:34.076Z,99957.41
2022-10-07T16:19:04.820Z,99958.03
2022-10-07T16:21:37.123Z,99962.00
2022-10-07T16:24:22.016Z,99954.78
2022-10-07T16:26:57.333Z,99961.63
2022-10-07T16:29:43.281Z,99956.69
2022-10-07T16:32:11.639Z,99959.19
2022-10-07T16:34:44.508Z,99957.50
2022-10-07T16:37:12.368Z,99972.66
2022-10-07T16:39:39.634Z,99967.72
2022-10-07T16:42:06.797Z,99971.06
2022-10-07T16:44:33.847Z,99961.94
2022-10-07T16:47:01.521Z,99969.16
2022-10-07T16:49:30.371Z,99959.81
2022-10-07T16:51:58.074Z,99965.00
2022-10-07T16:54:35.648Z,99963.31
2022-10-07T16:57:06.021Z,99973.28
2022-10-07T16:59:33.207Z,99958.81
2022-10-07T17:02:03.582Z,99959.63
2022-10-07T17:04:31.527Z,99975.16
2022-10-07T17:07:02.149Z,99974.16
2022-10-07T17:09:33.532Z,99958.88
2022-10-07T17:12:07.699Z,99969.66
2022-10-07T17:14:37.269Z,99961.00
2022-10-07T17:17:05.454Z,99953.75
2022-10-07T17:19:33.834Z,99965.16
2022-10-07T17:22:09.522Z,99971.75
2022-10-07T17:24:36.766Z,99955.81
2022-10-07T17:27:13.444Z,99977.56
2022-10-07T17:29:42.642Z,99976.75
2022-10-07T17:32:10.565Z,99950.66
2022-10-07T17:34:45.301Z,99980.84
2022-10-07T17:37:13.310Z,99980.84
2022-10-07T17:39:40.419Z,99966.56
2022-10-07T17:42:07.427Z,99977.31
2022-10-07T17:44:34.593Z,99968.44
2022-10-07T17:47:14.036Z,99958.06
2022-10-07T17:49:41.145Z,99958.88
2022-10-07T17:52:08.137Z,99958.03
2022-10-07T17:54:36.102Z,99961.72
2022-10-07T17:57:06.399Z,99969.19
2022-10-07T17:59:43.453Z,99952.22
2022-10-07T18:02:15.642Z,99983.06
2022-10-07T18:04:44.868Z,99979.53
2022-10-07T18:07:16.928Z,99980.53
2022-10-07T18:09:43.882Z,99983.22
2022-10-07T18:12:31.884Z,99983.22
2022-10-07T18:15:17.839Z,99983.63
2022-10-07T18:17:45.541Z,99980.31
2022-10-07T18:20:15.542Z,99986.66
2022-10-07T18:22:44.367Z,99979.66
2022-10-07T18:25:15.101Z,99993.50
2022-10-07T18:27:45.511Z,99978.97
2022-10-07T18:30:20.754Z,99976.00
2022-10-07T18:32:48.063Z,99970.22
2022-10-07T18:35:24.187Z,99979.78
2022-10-07T18:38:01.621Z,99966.50
2022-10-07T18:40:28.709Z,99973.50
2022-10-07T18:42:56.710Z,99989.66
2022-10-07T18:45:23.802Z,99972.03
2022-10-07T18:47:50.995Z,99982.25
2022-10-07T18:50:18.276Z,99990.94
2022-10-07T18:55:27.629Z,100003.66
2022-10-07T18:57:55.470Z,100004.50
2022-10-07T19:00:22.590Z,100014.47
2022-10-07T19:02:51.299Z,100020.47
2022-10-07T19:05:18.389Z,100018.78
2022-10-07T19:07:46.125Z,100013.00
2022-10-07T19:10:13.236Z,100016.97
2022-10-07T19:12:58.979Z,100020.13
2022-10-07T19:15:26.256Z,100027.41
2022-10-07T19:17:53.217Z,100019.97
2022-10-07T19:20:20.484Z,100022.94
2022-10-07T19:22:47.577Z,100023.94
2022-10-07T19:25:33.328Z,100026.63
2022-10-07T19:28:00.757Z,100040.06
2022-10-07T19:30:34.204Z,100037.78
2022-10-07T19:33:01.264Z,100032.19
2022-10-07T19:35:30.179Z,100019.53
2022-10-07T19:37:57.125Z,100020.34
2022-10-07T19:40:29.513Z,100022.03
2022-10-07T19:42:56.495Z,100024.31
2022-10-07T19:45:25.972Z,100021.94
2022-10-07T19:48:08.356Z,100024.81
2022-10-07T19:50:37.684Z,100029.75
2022-10-07T19:53:05.329Z,100035.72
2022-10-07T19:55:33.590Z,100028.19
2022-10-07T19:58:03.544Z,100037.09
2022-10-07T20:00:33.372Z,100032.31
2022-10-07T20:03:00.353Z,100031.44
2022-10-07T20:05:29.218Z,100034.88
2022-10-07T20:07:57.281Z,100039.16
2022-10-07T20:10:25.731Z,100034.28
2022-10-07T20:12:56.684Z,100039.44
2022-10-07T20:15:23.803Z,100037.31
2022-10-07T20:17:50.877Z,100045.94
2022-10-07T20:20:21.186Z,100032.44
2022-10-07T20:22:49.530Z,100035.53
2022-10-07T20:25:19.127Z,100025.53
2022-10-07T20:27:46.457Z,100035.34
2022-10-07T20:30:17.838Z,100031.38
2022-10-07T20:32:45.640Z,100045.69
2022-10-07T20:35:12.931Z,100032.78
2022-10-07T20:37:39.883Z,100037.13
2022-10-07T20:40:26.166Z,100036.06
2022-10-07T20:42:55.646Z,100034.97
2022-10-07T20:45:23.187Z,100036.38
2022-10-07T20:47:50.108Z,100040.69
2022-10-07T20:50:17.110Z,100036.13
2022-10-07T20:52:45.406Z,100035.19
2022-10-07T20:55:14.370Z,100046.16
2022-10-07T20:57:41.929Z,100052.47
2022-10-07T21:00:16.332Z,100041.50
2022-10-07T21:02:44.656Z,100045.97
2022-10-07T21:05:12.153Z,100051.91
2022-10-07T21:07:40.475Z,100055.78
2022-10-07T21:10:07.603Z,100057.47
2022-10-07T21:12:34.663Z,100059.00
2022-10-07T21:15:03.389Z,100059.94
2022-10-07T21:17:31.296Z,100058.94
2022-10-07T21:19:58.302Z,100061.16
2022-10-07T21:22:25.784Z,100060.03
2022-10-07T21:24:52.751Z,100056.78
2022-10-07T21:27:20.116Z,100055.56
2022-10-07T21:29:48.809Z,100058.84
2022-10-07T21:32:15.812Z,100058.41
2022-10-07T21:34:43.768Z,100057.53
2022-10-07T21:37:13.509Z,100060.50
2022-10-07T21:39:40.421Z,100063.19
2022-10-07T21:42:07.410Z,100061.53
2022-10-07T21:44:35.763Z,100057.78
2022-10-07T21:47:04.929Z,100063.97
2022-10-07T21:49:31.901Z,100063.41
2022-10-07T21:51:59.119Z,100057.56
2022-10-07T21:54:26.349Z,100063.59
2022-10-07T21:56:53.274Z,100061.53
2022-10-07T21:59:20.985Z,100053.31
2022-10-07T22:01:47.933Z,100059.94
2022-10-07T22:04:19.217Z,100053.31
2022-10-07T22:07:04.783Z,100054.28
2022-10-07T22:09:31.929Z,100056.56
2022-10-07T22:11:58.864Z,100057.56
2022-10-07T22:14:25.828Z,100059.00
2022-10-07T22:16:57.324Z,100059.81
2022-10-07T22:19:25.304Z,100059.03
2022-10-07T22:21:52.386Z,100064.47
2022-10-07T22:24:19.287Z,100059.50
2022-10-07T22:26:47.372Z,100065.25
2022-10-07T22:29:16.323Z,100059.44
2022-10-07T22:31:43.703Z,100058.59
2022-10-07T22:34:31.004Z,100072.44
2022-10-07T22:36:58.300Z,100065.00
2022-10-07T22:39:26.376Z,100072.13
2022-10-07T22:41:53.791Z,100060.38
2022-10-07T22:44:20.810Z,100068.00
2022-10-07T22:46:47.821Z,100070.59
2022-10-07T22:49:15.278Z,100078.88
2022-10-07T22:51:43.192Z,100067.50
2022-10-07T22:54:13.915Z,100062.41
2022-10-07T22:56:42.102Z,100078.25
2022-10-07T22:59:09.279Z,100070.47
2022-10-07T23:01:39.949Z,100065.47
2022-10-07T23:04:06.911Z,100067.25
2022-10-07T23:06:36.515Z,100061.63
2022-10-07T23:09:04.092Z,100065.03
2022-10-07T23:11:31.362Z,100065.44
2022-10-07T23:13:58.558Z,100070.13
2022-10-07T23:16:29.624Z,100063.03
2022-10-07T23:18:58.295Z,100058.25
2022-10-07T23:21:27.834Z,100057.22
2022-10-07T23:24:02.876Z,100059.06
2022-10-07T23:26:33.593Z,100051.31
2022-10-07T23:29:01.059Z,100046.50
2022-10-07T23:31:29.450Z,100047.53
2022-10-07T23:33:57.342Z,100046.50
2022-10-07T23:36:25.565Z,100053.47
2022-10-07T23:38:52.701Z,100044.69
2022-10-07T23:41:21.953Z,100045.78
2022-10-07T23:43:50.605Z,100048.84
2022-10-07T23:46:22.042Z,100045.03
2022-10-07T23:48:50.121Z,100046.25
2022-10-07T23:51:22.643Z,100040.44
2022-10-07T23:53:50.314Z,100035.75
2022-10-07T23:56:18.743Z,100029.03
2022-10-07T23:58:46.143Z,100047.38
